createdAt,value
2016-09-29T00:00:23.133Z,1017.02
2016-09-29T00:01:23.841Z,1017.03
2016-09-29T00:02:24.606Z,1016.98
2016-09-29T00:03:25.306Z,1016.96
2016-09-29T00:04:26.007Z,1016.94
2016-09-29T00:05:26.695Z,1016.84
2016-09-29T00:06:27.388Z,1016.84
2016-09-29T00:07:28.098Z,1016.85
2016-09-29T00:08:28.795Z,1016.77
2016-09-29T00:09:29.519Z,1016.74
2016-09-29T00:10:30.216Z,1016.76
2016-09-29T00:11:30.911Z,1016.81
2016-09-29T00:12:31.631Z,1016.78
2016-09-29T00:13:32.329Z,1016.78
2016-09-29T00:14:33.037Z,1016.83
2016-09-29T00:15:33.727Z,1016.75
2016-09-29T00:16:34.454Z,1016.74
2016-09-29T00:17:35.246Z,1016.69
2016-09-29T00:18:35.940Z,1016.67
2016-09-29T00:19:36.625Z,1016.66
2016-09-29T00:20:37.351Z,1016.67
2016-09-29T00:21:38.055Z,1016.7
2016-09-29T00:22:38.750Z,1016.66
2016-09-29T00:23:39.455Z,1016.68
2016-09-29T00:24:40.248Z,1016.69
2016-09-29T00:25:40.937Z,1016.62
2016-09-29T00:26:41.715Z,1016.67
2016-09-29T00:27:42.413Z,1016.69
2016-09-29T00:28:43.179Z,1016.73
2016-09-29T00:29:43.892Z,1016.72
2016-09-29T00:30:44.582Z,1016.7
2016-09-29T00:31:45.262Z,1016.71
2016-09-29T00:32:45.965Z,1016.75
2016-09-29T00:33:46.654Z,1016.74
2016-09-29T00:34:47.356Z,1016.73
2016-09-29T00:35:48.054Z,1016.77
2016-09-29T00:36:48.735Z,1016.73
2016-09-29T00:37:49.448Z,1016.7
2016-09-29T00:38:50.147Z,1016.78
2016-09-29T00:39:50.840Z,1016.74
2016-09-29T00:40:51.532Z,1016.77
2016-09-29T00:41:52.225Z,1016.77
2016-09-29T00:42:52.992Z,1016.72
2016-09-29T00:43:53.935Z,1016.68
2016-09-29T00:44:54.629Z,1016.7
2016-09-29T00:45:55.328Z,1016.68
2016-09-29T00:46:56.130Z,1016.74
2016-09-29T00:47:56.828Z,1016.69
2016-09-29T00:48:57.523Z,1016.77
2016-09-29T00:49:58.274Z,1016.77
2016-09-29T00:50:58.978Z,1016.76
2016-09-29T00:51:59.669Z,1016.73
2016-09-29T00:53:00.355Z,1016.71
2016-09-29T00:54:01.079Z,1016.72
2016-09-29T00:55:01.774Z,1016.67
2016-09-29T00:56:02.477Z,1016.69
2016-09-29T00:57:03.252Z,1016.67
2016-09-29T00:58:04.016Z,1016.61
2016-09-29T00:59:04.802Z,1016.58
2016-09-29T01:00:05.513Z,1016.57
2016-09-29T01:01:06.193Z,1016.5
2016-09-29T01:02:07.062Z,1016.49
2016-09-29T01:03:07.876Z,1016.5
2016-09-29T01:04:08.649Z,1016.47
2016-09-29T01:05:09.483Z,1016.49
2016-09-29T01:06:10.274Z,1016.49
2016-09-29T01:07:12.588Z,1016.5
2016-09-29T01:08:13.447Z,1016.52
2016-09-29T01:09:14.203Z,1016.58
2016-09-29T01:10:14.949Z,1016.55
2016-09-29T01:11:15.647Z,1016.5
2016-09-29T01:12:16.358Z,1016.48
2016-09-29T01:13:17.054Z,1016.48
2016-09-29T01:14:17.752Z,1016.44
2016-09-29T01:15:18.445Z,1016.43
2016-09-29T01:16:19.158Z,1016.46
2016-09-29T01:17:19.856Z,1016.47
2016-09-29T01:18:20.562Z,1016.51
2016-09-29T01:19:21.263Z,1016.54
2016-09-29T01:20:21.954Z,1016.44
2016-09-29T01:21:22.667Z,1016.45
2016-09-29T01:22:23.381Z,1016.43
2016-09-29T01:23:24.127Z,1016.4
2016-09-29T01:24:24.819Z,1016.36
2016-09-29T01:25:25.507Z,1016.39
2016-09-29T01:26:26.198Z,1016.38
2016-09-29T01:27:26.894Z,1016.38
2016-09-29T01:28:27.592Z,1016.37
2016-09-29T01:29:28.278Z,1016.38
2016-09-29T01:30:28.976Z,1016.35
2016-09-29T01:31:29.659Z,1016.36
2016-09-29T01:32:30.367Z,1016.32
2016-09-29T01:33:31.077Z,1016.33
2016-09-29T01:34:31.779Z,1016.29
2016-09-29T01:35:32.466Z,1016.31
2016-09-29T01:36:33.162Z,1016.31
2016-09-29T01:37:33.849Z,1016.26
2016-09-29T01:38:34.555Z,1016.21
2016-09-29T01:39:35.243Z,1016.18
2016-09-29T01:40:35.941Z,1016.16
2016-09-29T01:41:36.659Z,1016.01
2016-09-29T01:42:37.385Z,1016.09
2016-09-29T01:43:38.077Z,1016.02
2016-09-29T01:44:38.780Z,1016.01
2016-09-29T01:45:39.484Z,1015.95
2016-09-29T01:46:40.172Z,1015.96
2016-09-29T01:47:40.865Z,1015.98
2016-09-29T01:48:41.554Z,1015.97
2016-09-29T01:49:42.235Z,1015.96
2016-09-29T01:50:42.954Z,1015.95
2016-09-29T01:51:43.620Z,1015.96
2016-09-29T01:52:44.312Z,1015.92
2016-09-29T01:53:45.005Z,1015.82
2016-09-29T01:54:45.742Z,1015.89
2016-09-29T01:55:46.434Z,1015.9
2016-09-29T01:56:47.150Z,1015.82
2016-09-29T01:57:47.855Z,1015.87
2016-09-29T01:58:48.544Z,1015.79
2016-09-29T01:59:49.247Z,1015.84
2016-09-29T02:00:49.934Z,1015.85
2016-09-29T02:01:50.624Z,1015.78
2016-09-29T02:02:51.315Z,1015.79
2016-09-29T02:03:52.006Z,1015.77
2016-09-29T02:04:52.719Z,1015.69
2016-09-29T02:05:53.405Z,1015.67
2016-09-29T02:06:54.135Z,1015.65
2016-09-29T02:07:54.894Z,1015.61
2016-09-29T02:08:55.605Z,1015.59
2016-09-29T02:09:56.290Z,1015.56
2016-09-29T02:10:57.011Z,1015.53
2016-09-29T02:11:57.718Z,1015.49
2016-09-29T02:12:58.407Z,1015.41
2016-09-29T02:13:59.091Z,1015.47
2016-09-29T02:14:59.784Z,1015.53
2016-09-29T02:16:00.476Z,1015.45
2016-09-29T02:17:01.166Z,1015.46
2016-09-29T02:18:01.881Z,1015.44
2016-09-29T02:19:02.576Z,1015.42
2016-09-29T02:20:03.268Z,1015.45
2016-09-29T02:21:03.952Z,1015.42
2016-09-29T02:22:04.666Z,1015.41
2016-09-29T02:23:05.369Z,1015.4
2016-09-29T02:24:06.072Z,1015.37
2016-09-29T02:25:06.748Z,1015.31
2016-09-29T02:26:07.438Z,1015.25
2016-09-29T02:27:08.133Z,1015.18
2016-09-29T02:28:08.819Z,1015.15
2016-09-29T02:29:09.514Z,1015.13
2016-09-29T02:30:10.215Z,1015.13
2016-09-29T02:31:10.907Z,1015.18
2016-09-29T02:32:11.600Z,1015.19
2016-09-29T02:33:12.284Z,1015.22
2016-09-29T02:34:12.975Z,1015.27
2016-09-29T02:35:13.691Z,1015.22
2016-09-29T02:36:14.398Z,1015.24
2016-09-29T02:37:15.072Z,1015.29
2016-09-29T02:38:15.777Z,1015.25
2016-09-29T02:39:16.470Z,1015.21
2016-09-29T02:40:17.168Z,1015.23
2016-09-29T02:41:17.865Z,1015.29
2016-09-29T02:42:18.561Z,1015.25
2016-09-29T02:43:19.300Z,1015.28
2016-09-29T02:44:19.981Z,1015.23
2016-09-29T02:45:20.659Z,1015.23
2016-09-29T02:46:21.364Z,1015.23
2016-09-29T02:47:22.056Z,1015.17
2016-09-29T02:48:22.763Z,1015.09
2016-09-29T02:49:23.446Z,1015.13
2016-09-29T02:50:24.157Z,1015.04
2016-09-29T02:51:24.866Z,1015.06
2016-09-29T02:52:25.571Z,1015.03
2016-09-29T02:53:26.279Z,1015
2016-09-29T02:54:27.014Z,1015
2016-09-29T02:55:27.712Z,1015.06
2016-09-29T02:56:28.406Z,1015.06
2016-09-29T02:57:29.094Z,1015.05
2016-09-29T02:58:29.798Z,1014.98
2016-09-29T02:59:30.485Z,1015.01
2016-09-29T03:00:31.196Z,1014.99
2016-09-29T03:01:31.901Z,1015.02
2016-09-29T03:02:32.611Z,1014.98
2016-09-29T03:03:33.288Z,1014.96
2016-09-29T03:04:33.981Z,1014.92
2016-09-29T03:05:34.676Z,1014.89
2016-09-29T03:06:35.393Z,1014.94
2016-09-29T03:07:36.089Z,1014.88
2016-09-29T03:08:36.778Z,1014.88
2016-09-29T03:09:37.458Z,1014.77
2016-09-29T03:10:38.154Z,1014.82
2016-09-29T03:11:38.849Z,1014.74
2016-09-29T03:12:39.537Z,1014.74
2016-09-29T03:13:40.235Z,1014.75
2016-09-29T03:14:40.922Z,1014.69
2016-09-29T03:15:41.653Z,1014.72
2016-09-29T03:16:42.444Z,1014.67
2016-09-29T03:17:43.135Z,1014.66
2016-09-29T03:18:43.827Z,1014.65
2016-09-29T03:19:44.519Z,1014.69
2016-09-29T03:20:45.234Z,1014.67
2016-09-29T03:21:45.940Z,1014.58
2016-09-29T03:22:47.020Z,1014.61
2016-09-29T03:23:47.793Z,1014.57
2016-09-29T03:24:48.576Z,1014.61
2016-09-29T03:25:49.654Z,1014.59
2016-09-29T03:26:50.358Z,1014.64
2016-09-29T03:27:51.053Z,1014.55
2016-09-29T03:28:51.751Z,1014.59
2016-09-29T03:29:52.516Z,1014.51
2016-09-29T03:30:53.223Z,1014.5
2016-09-29T03:31:53.998Z,1014.43
2016-09-29T03:32:54.715Z,1014.48
2016-09-29T03:33:55.414Z,1014.44
2016-09-29T03:34:56.115Z,1014.37
2016-09-29T03:35:56.812Z,1014.31
2016-09-29T03:36:57.501Z,1014.37
2016-09-29T03:37:58.200Z,1014.38
2016-09-29T03:38:58.882Z,1014.23
2016-09-29T03:39:59.614Z,1014.41
2016-09-29T03:41:00.282Z,1014.36
2016-09-29T03:42:00.979Z,1014.41
2016-09-29T03:43:01.681Z,1014.45
2016-09-29T03:44:02.410Z,1014.43
2016-09-29T03:45:03.100Z,1014.39
2016-09-29T03:46:03.824Z,1014.42
2016-09-29T03:47:04.510Z,1014.43
2016-09-29T03:48:05.204Z,1014.4
2016-09-29T03:49:05.914Z,1014.41
2016-09-29T03:50:06.623Z,1014.38
2016-09-29T03:51:07.326Z,1014.39
2016-09-29T03:52:08.033Z,1014.39
2016-09-29T03:53:08.743Z,1014.39
2016-09-29T03:54:09.424Z,1014.33
2016-09-29T03:55:10.141Z,1014.28
2016-09-29T03:56:10.839Z,1014.23
2016-09-29T03:57:11.519Z,1014.29
2016-09-29T03:58:12.222Z,1014.24
2016-09-29T03:59:12.931Z,1014.33
2016-09-29T04:00:13.614Z,1014.29
2016-09-29T04:01:14.305Z,1014.27
2016-09-29T04:02:15.010Z,1014.28
2016-09-29T04:03:15.699Z,1014.34
2016-09-29T04:04:16.392Z,1014.32
2016-09-29T04:05:17.103Z,1014.33
2016-09-29T04:06:17.794Z,1014.31
2016-09-29T04:07:18.475Z,1014.27
2016-09-29T04:08:19.164Z,1014.31
2016-09-29T04:09:19.868Z,1014.35
2016-09-29T04:10:20.554Z,1014.38
2016-09-29T04:11:21.250Z,1014.28
2016-09-29T04:12:21.962Z,1014.32
2016-09-29T04:13:22.652Z,1014.28
2016-09-29T04:14:23.346Z,1014.29
2016-09-29T04:15:24.045Z,1014.23
2016-09-29T04:16:24.723Z,1014.18
2016-09-29T04:17:25.423Z,1014.24
2016-09-29T04:18:26.122Z,1014.26
2016-09-29T04:19:26.825Z,1014.19
2016-09-29T04:20:27.511Z,1014.21
2016-09-29T04:21:28.218Z,1014.21
2016-09-29T04:22:28.908Z,1014.13
2016-09-29T04:23:29.594Z,1014.1
2016-09-29T04:24:30.285Z,1014.1
2016-09-29T04:25:30.986Z,1014.16
2016-09-29T04:26:31.672Z,1014.1
2016-09-29T04:27:32.368Z,1014.07
2016-09-29T04:28:33.052Z,1014.08
2016-09-29T04:29:33.781Z,1014.05
2016-09-29T04:30:34.474Z,1014.04
2016-09-29T04:31:35.175Z,1014.06
2016-09-29T04:32:35.863Z,1014.04
2016-09-29T04:33:36.559Z,1013.98
2016-09-29T04:34:37.262Z,1014.06
2016-09-29T04:35:37.949Z,1013.93
2016-09-29T04:36:38.636Z,1013.89
2016-09-29T04:37:39.328Z,1013.95
2016-09-29T04:38:40.025Z,1013.91
2016-09-29T04:39:40.720Z,1013.93
2016-09-29T04:40:41.419Z,1013.91
2016-09-29T04:41:42.124Z,1013.92
2016-09-29T04:42:42.818Z,1013.87
2016-09-29T04:43:43.506Z,1013.89
2016-09-29T04:44:44.204Z,1013.88
2016-09-29T04:45:44.914Z,1013.83
2016-09-29T04:46:45.616Z,1013.85
2016-09-29T04:47:46.308Z,1013.87
2016-09-29T04:48:46.993Z,1013.83
2016-09-29T04:49:47.692Z,1013.8
2016-09-29T04:50:48.384Z,1013.74
2016-09-29T04:51:49.087Z,1013.78
2016-09-29T04:52:49.792Z,1013.66
2016-09-29T04:53:50.537Z,1013.67
2016-09-29T04:54:51.245Z,1013.7
2016-09-29T04:55:51.959Z,1013.64
2016-09-29T04:56:52.677Z,1013.56
2016-09-29T04:57:53.367Z,1013.62
2016-09-29T04:58:54.064Z,1013.65
2016-09-29T04:59:54.756Z,1013.58
2016-09-29T05:00:55.457Z,1013.56
2016-09-29T05:01:56.148Z,1013.58
2016-09-29T05:02:56.839Z,1013.57
2016-09-29T05:03:57.548Z,1013.61
2016-09-29T05:04:58.248Z,1013.6
2016-09-29T05:05:58.957Z,1013.57
2016-09-29T05:06:59.653Z,1013.55
2016-09-29T05:08:00.336Z,1013.55
2016-09-29T05:09:01.567Z,1013.51
2016-09-29T05:10:02.267Z,1013.56
2016-09-29T05:11:02.968Z,1013.54
2016-09-29T05:12:03.660Z,1013.51
2016-09-29T05:13:04.355Z,1013.52
2016-09-29T05:14:05.052Z,1013.54
2016-09-29T05:15:05.726Z,1013.45
2016-09-29T05:16:06.445Z,1013.45
2016-09-29T05:17:07.153Z,1013.44
2016-09-29T05:18:07.839Z,1013.52
2016-09-29T05:19:08.547Z,1013.5
2016-09-29T05:20:09.234Z,1013.5
2016-09-29T05:21:09.942Z,1013.56
2016-09-29T05:22:11.180Z,1013.49
2016-09-29T05:23:11.868Z,1013.49
2016-09-29T05:24:12.566Z,1013.49
2016-09-29T05:25:13.276Z,1013.44
2016-09-29T05:26:15.488Z,1013.5
2016-09-29T05:27:17.769Z,1013.44
2016-09-29T05:28:19.083Z,1013.41
2016-09-29T05:29:20.403Z,1013.39
2016-09-29T05:30:22.320Z,1013.45
2016-09-29T05:31:24.160Z,1013.45
2016-09-29T05:32:24.899Z,1013.45
2016-09-29T05:33:25.606Z,1013.49
2016-09-29T05:34:26.678Z,1013.49
2016-09-29T05:35:27.696Z,1013.5
2016-09-29T05:36:28.417Z,1013.49
2016-09-29T05:37:29.112Z,1013.48
2016-09-29T05:38:29.820Z,1013.46
2016-09-29T05:39:30.533Z,1013.43
2016-09-29T05:40:31.244Z,1013.41
2016-09-29T05:41:31.941Z,1013.39
2016-09-29T05:42:32.664Z,1013.36
2016-09-29T05:43:33.365Z,1013.29
2016-09-29T05:44:34.074Z,1013.26
2016-09-29T05:45:34.772Z,1013.27
2016-09-29T05:46:35.483Z,1013.29
2016-09-29T05:47:36.219Z,1013.29
2016-09-29T05:48:37.123Z,1013.17
2016-09-29T05:49:37.822Z,1013.22
2016-09-29T05:50:38.556Z,1013.26
2016-09-29T05:51:39.453Z,1013.2
2016-09-29T05:52:40.455Z,1013.19
2016-09-29T05:53:42.061Z,1013.21
2016-09-29T05:54:43.973Z,1013.11
2016-09-29T05:55:45.512Z,1013.14
2016-09-29T05:56:46.966Z,1013.18
2016-09-29T05:57:48.389Z,1013.11
2016-09-29T05:58:49.770Z,1013.13
2016-09-29T05:59:51.270Z,1013.13
2016-09-29T06:00:52.391Z,1013.14
2016-09-29T06:01:53.116Z,1013.16
2016-09-29T06:02:53.838Z,1013.12
2016-09-29T06:03:54.559Z,1013.09
2016-09-29T06:04:55.287Z,1013.1
2016-09-29T06:05:56.007Z,1013.09
2016-09-29T06:06:56.692Z,1013.07
2016-09-29T06:07:57.381Z,1012.99
2016-09-29T06:08:58.089Z,1013.05
2016-09-29T06:09:58.782Z,1013.06
2016-09-29T06:10:59.490Z,1013
2016-09-29T06:12:00.176Z,1013.01
2016-09-29T06:13:00.866Z,1013.01
2016-09-29T06:14:01.555Z,1013
2016-09-29T06:15:02.260Z,1012.97
2016-09-29T06:16:02.970Z,1012.95
2016-09-29T06:17:03.681Z,1012.98
2016-09-29T06:18:04.381Z,1012.92
2016-09-29T06:19:05.075Z,1012.96
2016-09-29T06:20:05.809Z,1012.95
2016-09-29T06:21:06.498Z,1012.95
2016-09-29T06:22:07.194Z,1012.94
2016-09-29T06:23:07.891Z,1012.89
2016-09-29T06:24:08.580Z,1012.83
2016-09-29T06:25:09.292Z,1012.83
2016-09-29T06:26:10.002Z,1012.85
2016-09-29T06:27:10.705Z,1012.76
2016-09-29T06:28:11.415Z,1012.75
2016-09-29T06:29:12.127Z,1012.79
2016-09-29T06:30:12.818Z,1012.76
2016-09-29T06:31:13.546Z,1012.77
2016-09-29T06:32:14.252Z,1012.68
2016-09-29T06:33:14.970Z,1012.83
2016-09-29T06:34:15.654Z,1012.81
2016-09-29T06:35:16.376Z,1012.8
2016-09-29T06:36:17.103Z,1012.87
2016-09-29T06:37:17.814Z,1012.78
2016-09-29T06:38:18.551Z,1012.78
2016-09-29T06:39:19.274Z,1012.8
2016-09-29T06:40:19.992Z,1012.81
2016-09-29T06:41:20.679Z,1012.82
2016-09-29T06:42:21.372Z,1012.77
2016-09-29T06:43:22.073Z,1012.79
2016-09-29T06:44:22.783Z,1012.83
2016-09-29T06:45:23.477Z,1012.79
2016-09-29T06:46:24.187Z,1012.76
2016-09-29T06:47:24.899Z,1012.81
2016-09-29T06:48:25.590Z,1012.84
2016-09-29T06:49:26.300Z,1012.8
2016-09-29T06:50:26.995Z,1012.8
2016-09-29T06:51:27.700Z,1012.82
2016-09-29T06:52:28.387Z,1012.85
2016-09-29T06:53:29.090Z,1012.83
2016-09-29T06:54:29.820Z,1012.79
2016-09-29T06:55:30.516Z,1012.74
2016-09-29T06:56:31.297Z,1012.82
2016-09-29T06:57:31.996Z,1012.78
2016-09-29T06:58:32.706Z,1012.83
2016-09-29T06:59:33.409Z,1012.81
2016-09-29T07:00:34.097Z,1012.77
2016-09-29T07:01:34.803Z,1012.75
2016-09-29T07:02:35.509Z,1012.74
2016-09-29T07:03:36.202Z,1012.8
2016-09-29T07:04:36.906Z,1012.77
2016-09-29T07:05:37.599Z,1012.77
2016-09-29T07:06:38.307Z,1012.75
2016-09-29T07:07:39.029Z,1012.74
2016-09-29T07:08:39.722Z,1012.76
2016-09-29T07:09:40.407Z,1012.63
2016-09-29T07:10:41.128Z,1012.65
2016-09-29T07:11:41.835Z,1012.63
2016-09-29T07:12:42.539Z,1012.63
2016-09-29T07:13:43.228Z,1012.57
2016-09-29T07:14:43.963Z,1012.47
2016-09-29T07:15:44.656Z,1012.4
2016-09-29T07:16:45.347Z,1012.38
2016-09-29T07:17:46.049Z,1012.46
2016-09-29T07:18:46.745Z,1012.54
2016-09-29T07:19:47.462Z,1012.58
2016-09-29T07:20:48.161Z,1012.51
2016-09-29T07:21:48.870Z,1012.49
2016-09-29T07:22:49.567Z,1012.52
2016-09-29T07:23:50.268Z,1012.43
2016-09-29T07:24:50.968Z,1012.46
2016-09-29T07:25:51.670Z,1012.39
2016-09-29T07:26:52.361Z,1012.47
2016-09-29T07:27:53.055Z,1012.46
2016-09-29T07:28:53.752Z,1012.45
2016-09-29T07:29:54.473Z,1012.57
2016-09-29T07:30:55.175Z,1012.47
2016-09-29T07:31:55.890Z,1012.46
2016-09-29T07:32:56.581Z,1012.49
2016-09-29T07:33:57.305Z,1012.42
2016-09-29T07:34:58.011Z,1012.44
2016-09-29T07:35:58.704Z,1012.43
2016-09-29T07:36:59.732Z,1012.4
2016-09-29T07:38:00.471Z,1012.42
2016-09-29T07:39:01.176Z,1012.43
2016-09-29T07:40:01.926Z,1012.42
2016-09-29T07:41:02.634Z,1012.46
2016-09-29T07:42:03.384Z,1012.42
2016-09-29T07:43:04.131Z,1012.47
2016-09-29T07:44:04.870Z,1012.49
2016-09-29T07:45:05.542Z,1012.51
2016-09-29T07:46:06.257Z,1012.5
2016-09-29T07:47:06.974Z,1012.47
2016-09-29T07:48:07.678Z,1012.47
2016-09-29T07:49:08.366Z,1012.43
2016-09-29T07:50:09.110Z,1012.52
2016-09-29T07:51:09.794Z,1012.6
2016-09-29T07:52:10.488Z,1012.52
2016-09-29T07:53:11.279Z,1012.5
2016-09-29T07:54:11.982Z,1012.45
2016-09-29T07:55:12.684Z,1012.47
2016-09-29T07:56:13.410Z,1012.49
2016-09-29T07:57:14.156Z,1012.56
2016-09-29T07:58:14.882Z,1012.57
2016-09-29T07:59:15.593Z,1012.49
2016-09-29T08:00:16.311Z,1012.56
2016-09-29T08:01:17.019Z,1012.51
2016-09-29T08:02:17.742Z,1012.57
2016-09-29T08:03:18.436Z,1012.56
2016-09-29T08:04:19.140Z,1012.63
2016-09-29T08:05:19.832Z,1012.65
2016-09-29T08:06:20.553Z,1012.53
2016-09-29T08:07:21.256Z,1012.62
2016-09-29T08:08:21.954Z,1012.52
2016-09-29T08:09:22.659Z,1012.62
2016-09-29T08:10:23.365Z,1012.62
2016-09-29T08:11:24.099Z,1012.58
2016-09-29T08:12:24.843Z,1012.5
2016-09-29T08:13:25.550Z,1012.6
2016-09-29T08:14:26.375Z,1012.55
2016-09-29T08:15:27.135Z,1012.57
2016-09-29T08:16:28.006Z,1012.47
2016-09-29T08:17:28.712Z,1012.54
2016-09-29T08:18:29.419Z,1012.51
2016-09-29T08:19:30.121Z,1012.47
2016-09-29T08:20:31.077Z,1012.56
2016-09-29T08:21:31.965Z,1012.59
2016-09-29T08:22:32.718Z,1012.46
2016-09-29T08:23:33.520Z,1012.57
2016-09-29T08:24:34.247Z,1012.5
2016-09-29T08:25:35.102Z,1012.57
2016-09-29T08:26:36.028Z,1012.58
2016-09-29T08:27:38.597Z,1012.54
2016-09-29T08:28:37.770Z,1012.5
2016-09-29T08:29:38.462Z,1012.47
2016-09-29T08:30:39.254Z,1012.53
2016-09-29T08:31:40.251Z,1012.54
2016-09-29T08:32:41.077Z,1012.49
2016-09-29T08:33:42.003Z,1012.5
2016-09-29T08:34:42.748Z,1012.44
2016-09-29T08:35:43.468Z,1012.38
2016-09-29T08:36:44.195Z,1012.41
2016-09-29T08:37:44.896Z,1012.44
2016-09-29T08:38:45.652Z,1012.28
2016-09-29T08:39:46.409Z,1012.39
2016-09-29T08:40:47.108Z,1012.43
2016-09-29T08:41:47.810Z,1012.43
2016-09-29T08:42:48.510Z,1012.43
2016-09-29T08:43:49.215Z,1012.44
2016-09-29T08:44:49.956Z,1012.49
2016-09-29T08:45:50.681Z,1012.54
2016-09-29T08:46:51.402Z,1012.49
2016-09-29T08:47:52.128Z,1012.42
2016-09-29T08:48:52.837Z,1012.35
2016-09-29T08:49:53.554Z,1012.32
2016-09-29T08:50:54.284Z,1012.24
2016-09-29T08:51:54.995Z,1012.22
2016-09-29T08:52:55.696Z,1012.27
2016-09-29T08:53:56.413Z,1012.31
2016-09-29T08:54:57.156Z,1012.26
2016-09-29T08:55:57.862Z,1012.26
2016-09-29T08:56:58.593Z,1012.27
2016-09-29T08:57:59.300Z,1012.21
2016-09-29T08:59:00.033Z,1012.23
2016-09-29T09:00:00.734Z,1012.3
2016-09-29T09:01:01.459Z,1012.17
2016-09-29T09:02:02.168Z,1012.23
2016-09-29T09:03:02.889Z,1012.23
2016-09-29T09:04:03.596Z,1012.19
2016-09-29T09:05:04.301Z,1012.22
2016-09-29T09:06:05.003Z,1012.12
2016-09-29T09:07:05.696Z,1012.16
2016-09-29T09:08:07.290Z,1012.16
2016-09-29T09:09:08.016Z,1012.1
2016-09-29T09:10:08.721Z,1012.03
2016-09-29T09:11:09.480Z,1012
2016-09-29T09:12:10.185Z,1011.95
2016-09-29T09:13:10.907Z,1011.94
2016-09-29T09:14:11.614Z,1011.91
2016-09-29T09:15:12.321Z,1011.93
2016-09-29T09:16:13.039Z,1011.93
2016-09-29T09:17:13.759Z,1011.8
2016-09-29T09:18:14.460Z,1011.84
2016-09-29T09:19:15.171Z,1011.81
2016-09-29T09:20:15.890Z,1011.77
2016-09-29T09:21:16.615Z,1011.73
2016-09-29T09:22:17.309Z,1011.79
2016-09-29T09:23:18.056Z,1011.74
2016-09-29T09:24:18.859Z,1011.78
2016-09-29T09:25:19.496Z,1011.79
2016-09-29T09:26:20.235Z,1011.68
2016-09-29T09:27:20.945Z,1011.7
2016-09-29T09:28:21.670Z,1011.65
2016-09-29T09:29:22.390Z,1011.6
2016-09-29T09:30:23.095Z,1011.56
2016-09-29T09:31:23.818Z,1011.64
2016-09-29T09:32:24.522Z,1011.56
2016-09-29T09:33:25.237Z,1011.56
2016-09-29T09:34:25.960Z,1011.55
2016-09-29T09:35:26.676Z,1011.55
2016-09-29T09:36:27.407Z,1011.47
2016-09-29T09:37:28.126Z,1011.45
2016-09-29T09:38:28.818Z,1011.42
2016-09-29T09:39:29.530Z,1011.34
2016-09-29T09:40:30.227Z,1011.35
2016-09-29T09:41:30.931Z,1011.3
2016-09-29T09:42:31.735Z,1011.3
2016-09-29T09:43:32.448Z,1011.29
2016-09-29T09:44:33.158Z,1011.29
2016-09-29T09:45:33.878Z,1011.33
2016-09-29T09:46:34.665Z,1011.24
2016-09-29T09:47:35.407Z,1011.21
2016-09-29T09:48:36.111Z,1011.24
2016-09-29T09:49:36.817Z,1011.2
2016-09-29T09:50:37.526Z,1011.28
2016-09-29T09:51:38.227Z,1011.22
2016-09-29T09:52:38.938Z,1011.21
2016-09-29T09:53:39.649Z,1011.2
2016-09-29T09:54:40.353Z,1011.2
2016-09-29T09:55:41.094Z,1011.23
2016-09-29T09:56:41.810Z,1011.17
2016-09-29T09:57:42.530Z,1011.19
2016-09-29T09:58:43.242Z,1011.12
2016-09-29T09:59:43.945Z,1011.03
2016-09-29T10:00:44.654Z,1011
2016-09-29T10:01:45.377Z,1011.04
2016-09-29T10:02:46.079Z,1011
2016-09-29T10:03:46.782Z,1011.02
2016-09-29T10:04:47.505Z,1010.97
2016-09-29T10:05:48.213Z,1010.99
2016-09-29T10:06:48.954Z,1011
2016-09-29T10:07:49.893Z,1011.01
2016-09-29T10:08:50.623Z,1010.93
2016-09-29T10:09:51.347Z,1010.87
2016-09-29T10:10:52.079Z,1010.91
2016-09-29T10:11:52.794Z,1010.84
2016-09-29T10:12:53.497Z,1010.87
2016-09-29T10:13:54.257Z,1010.79
2016-09-29T10:14:55.013Z,1010.83
2016-09-29T10:15:55.736Z,1010.79
2016-09-29T10:16:56.443Z,1010.72
2016-09-29T10:17:57.212Z,1010.77
2016-09-29T10:18:58.107Z,1010.74
2016-09-29T10:19:59.006Z,1010.73
2016-09-29T10:20:59.952Z,1010.71
2016-09-29T10:22:00.677Z,1010.73
2016-09-29T10:23:01.445Z,1010.75
2016-09-29T10:24:02.158Z,1010.77
2016-09-29T10:25:02.902Z,1010.78
2016-09-29T10:26:03.625Z,1010.75
2016-09-29T10:27:04.362Z,1010.79
2016-09-29T10:28:05.063Z,1010.75
2016-09-29T10:29:05.804Z,1010.73
2016-09-29T10:30:06.542Z,1010.69
2016-09-29T10:31:07.381Z,1010.68
2016-09-29T10:32:08.021Z,1010.7
2016-09-29T10:33:08.762Z,1010.71
2016-09-29T10:34:09.726Z,1010.79
2016-09-29T10:35:10.208Z,1010.79
2016-09-29T10:36:10.913Z,1010.77
2016-09-29T10:37:11.657Z,1010.71
2016-09-29T10:38:12.373Z,1010.78
2016-09-29T10:39:13.136Z,1010.87
2016-09-29T10:40:13.825Z,1010.76
2016-09-29T10:41:14.536Z,1010.77
2016-09-29T10:42:15.224Z,1010.77
2016-09-29T10:43:16.316Z,1010.78
2016-09-29T10:44:17.115Z,1010.76
2016-09-29T10:45:17.820Z,1010.86
2016-09-29T10:46:18.639Z,1010.77
2016-09-29T10:47:19.348Z,1010.78
2016-09-29T10:48:20.044Z,1010.7
2016-09-29T10:49:20.762Z,1010.64
2016-09-29T10:50:21.538Z,1010.7
2016-09-29T10:51:22.286Z,1010.68
2016-09-29T10:52:23.208Z,1010.66
2016-09-29T10:53:23.899Z,1010.64
2016-09-29T10:54:24.615Z,1010.63
2016-09-29T10:55:25.335Z,1010.7
2016-09-29T10:56:26.052Z,1010.72
2016-09-29T10:57:26.879Z,1010.68
2016-09-29T10:58:27.603Z,1010.64
2016-09-29T10:59:28.295Z,1010.67
2016-09-29T11:00:29.105Z,1010.58
2016-09-29T11:01:29.878Z,1010.61
2016-09-29T11:02:30.608Z,1010.58
2016-09-29T11:03:31.328Z,1010.53
2016-09-29T11:04:32.050Z,1010.6
2016-09-29T11:05:32.772Z,1010.52
2016-09-29T11:06:33.467Z,1010.54
2016-09-29T11:07:34.179Z,1010.49
2016-09-29T11:08:34.896Z,1010.46
2016-09-29T11:09:35.612Z,1010.49
2016-09-29T11:10:36.303Z,1010.45
2016-09-29T11:11:37.006Z,1010.48
2016-09-29T11:12:37.737Z,1010.4
2016-09-29T11:13:38.442Z,1010.47
2016-09-29T11:14:39.167Z,1010.39
2016-09-29T11:15:39.903Z,1010.54
2016-09-29T11:16:40.602Z,1010.57
2016-09-29T11:17:41.312Z,1010.49
2016-09-29T11:18:42.024Z,1010.41
2016-09-29T11:19:42.712Z,1010.42
2016-09-29T11:20:43.426Z,1010.45
2016-09-29T11:21:44.142Z,1010.47
2016-09-29T11:22:44.851Z,1010.54
2016-09-29T11:23:45.603Z,1010.48
2016-09-29T11:24:46.314Z,1010.37
2016-09-29T11:25:47.027Z,1010.36
2016-09-29T11:26:47.742Z,1010.3
2016-09-29T11:27:48.466Z,1010.34
2016-09-29T11:28:49.169Z,1010.28
2016-09-29T11:29:49.877Z,1010.37
2016-09-29T11:30:50.603Z,1010.33
2016-09-29T11:31:51.287Z,1010.25
2016-09-29T11:32:51.987Z,1010.18
2016-09-29T11:33:52.722Z,1010.2
2016-09-29T11:34:53.415Z,1010.23
2016-09-29T11:35:54.124Z,1010.13
2016-09-29T11:36:54.844Z,1010.18
2016-09-29T11:37:55.570Z,1010.16
2016-09-29T11:38:56.261Z,1010.09
2016-09-29T11:39:57.013Z,1010.09
2016-09-29T11:40:57.731Z,1010.05
2016-09-29T11:41:58.439Z,1010.07
2016-09-29T11:42:59.195Z,1010.09
2016-09-29T11:43:59.882Z,1010.05
2016-09-29T11:45:00.594Z,1009.97
2016-09-29T11:46:01.309Z,1010.05
2016-09-29T11:47:02.014Z,1010
2016-09-29T11:48:02.715Z,1009.95
2016-09-29T11:49:03.429Z,1009.9
2016-09-29T11:50:04.134Z,1009.93
2016-09-29T11:51:04.857Z,1009.9
2016-09-29T11:52:05.546Z,1009.97
2016-09-29T11:53:06.234Z,1009.92
2016-09-29T11:54:06.944Z,1009.93
2016-09-29T11:55:07.647Z,1009.88
2016-09-29T11:56:08.358Z,1009.85
2016-09-29T11:57:09.066Z,1009.9
2016-09-29T11:58:09.759Z,1009.86
2016-09-29T11:59:10.508Z,1009.83
2016-09-29T12:00:11.299Z,1009.81
2016-09-29T12:01:11.998Z,1009.76
2016-09-29T12:02:12.709Z,1009.78
2016-09-29T12:03:13.410Z,1009.72
2016-09-29T12:04:14.160Z,1009.69
2016-09-29T12:05:14.858Z,1009.72
2016-09-29T12:06:15.595Z,1009.71
2016-09-29T12:07:16.293Z,1009.65
2016-09-29T12:08:16.997Z,1009.7
2016-09-29T12:09:17.698Z,1009.67
2016-09-29T12:10:18.405Z,1009.6
2016-09-29T12:11:19.120Z,1009.52
2016-09-29T12:12:19.820Z,1009.46
2016-09-29T12:13:20.523Z,1009.41
2016-09-29T12:14:21.215Z,1009.41
2016-09-29T12:15:22.039Z,1009.43
2016-09-29T12:16:22.677Z,1009.47
2016-09-29T12:17:23.397Z,1009.41